Terminal Aerodrome Forecast
Issued by NWS

Home | Current Version | Previous Version | Text Only | Print | Product List | Glossary On
Versions: 1 2 3 4 5 6 7 8 9 10 11 12 13 14 15 16 17 18 19 20 21 22 23
000
FTUS42 KJAX 241100
TAFVQQ
TAF
KVQQ 241123Z 2412/2512 00000KT 1/4SM FG OVC001
     FM241300 VRB02KT 2SM BR BKN004
     FM241400 12006KT P6SM SCT050
     FM241900 14010KT P6SM BKN050
     FM250200 19005KT P6SM SCT060=

USA.gov is the U.S. government's official web portal to all federal, state and local government web resources and services.